createdAt,value
2022-09-11T00:00:53.062Z,93.90
2022-09-11T00:01:49.659Z,93.64
2022-09-11T00:02:46.323Z,93.20
2022-09-11T00:03:44.835Z,93.10
2022-09-11T00:04:41.425Z,93.11
2022-09-11T00:05:41.743Z,93.30
2022-09-11T00:06:39.563Z,93.50
2022-09-11T00:07:36.759Z,93.01
2022-09-11T00:08:33.388Z,92.57
2022-09-11T00:09:29.935Z,92.14
2022-09-11T00:10:27.312Z,91.75
2022-09-11T00:11:23.890Z,92.21
2022-09-11T00:12:22.167Z,92.59
2022-09-11T00:13:22.138Z,91.67
2022-09-11T00:14:19.180Z,91.22
2022-09-11T00:15:15.933Z,91.08
2022-09-11T00:16:28.714Z,90.79
2022-09-11T00:17:25.355Z,91.45
2022-09-11T00:18:21.958Z,92.20
2022-09-11T00:19:20.105Z,92.54
2022-09-11T00:20:16.962Z,92.83
2022-09-11T00:21:13.847Z,92.97
2022-09-11T00:22:11.566Z,93.45
2022-09-11T00:23:08.950Z,93.76
2022-09-11T00:24:08.849Z,93.86
2022-09-11T00:25:05.779Z,93.68
2022-09-11T00:26:04.127Z,93.26
2022-09-11T00:27:01.028Z,93.14
2022-09-11T00:27:57.982Z,92.96
2022-09-11T00:28:55.380Z,92.82
2022-09-11T00:29:51.972Z,92.29
2022-09-11T00:31:01.870Z,92.05
2022-09-11T00:31:58.497Z,92.09
2022-09-11T00:32:55.556Z,92.02
2022-09-11T00:33:52.322Z,91.67
2022-09-11T00:34:50.180Z,91.23
2022-09-11T00:35:57.089Z,91.01
2022-09-11T00:36:53.733Z,90.24
2022-09-11T00:37:50.329Z,89.70
2022-09-11T00:38:47.773Z,90.26
2022-09-11T00:39:44.378Z,90.26
2022-09-11T00:40:48.088Z,90.29
2022-09-11T00:41:46.191Z,90.66
2022-09-11T00:42:43.508Z,90.59
2022-09-11T00:43:56.131Z,90.99
2022-09-11T00:45:02.172Z,90.63
2022-09-11T00:46:02.977Z,90.89
2022-09-11T00:47:03.176Z,90.96
2022-09-11T00:48:00.241Z,91.00
2022-09-11T00:48:59.803Z,91.16
2022-09-11T00:50:03.136Z,91.61
2022-09-11T00:51:03.956Z,92.47
2022-09-11T00:52:15.020Z,93.05
2022-09-11T00:53:17.695Z,93.62
2022-09-11T00:54:19.470Z,94.00
2022-09-11T00:55:18.872Z,94.33
2022-09-11T00:56:15.507Z,93.68
2022-09-11T00:57:12.764Z,93.46
2022-09-11T00:58:15.386Z,92.70
2022-09-11T00:59:13.152Z,91.67
2022-09-11T01:00:12.831Z,91.40
2022-09-11T01:01:10.581Z,90.99
2022-09-11T01:02:12.264Z,91.21
2022-09-11T01:03:08.950Z,90.81
2022-09-11T01:04:06.821Z,90.46
2022-09-11T01:05:06.098Z,91.08
2022-09-11T01:06:02.762Z,91.13
2022-09-11T01:06:59.817Z,91.44
2022-09-11T01:07:56.681Z,91.34
2022-09-11T01:08:53.242Z,91.26
2022-09-11T01:09:51.272Z,91.10
2022-09-11T01:11:31.522Z,90.94
2022-09-11T01:12:51.253Z,91.50
2022-09-11T01:13:59.577Z,91.15
2022-09-11T01:15:05.998Z,91.28
2022-09-11T01:16:39.486Z,91.90
2022-09-11T01:17:40.344Z,91.74
2022-09-11T01:18:46.973Z,92.17
2022-09-11T01:19:52.736Z,92.29
2022-09-11T01:21:13.852Z,92.10
2022-09-11T01:22:45.852Z,91.79
2022-09-11T01:24:29.544Z,91.48
2022-09-11T01:25:52.330Z,91.20
2022-09-11T01:27:04.166Z,91.04
2022-09-11T01:28:07.323Z,91.37
2022-09-11T01:29:16.188Z,91.18
2022-09-11T01:30:16.680Z,91.02
2022-09-11T01:31:20.410Z,91.24
2022-09-11T01:32:24.071Z,91.62
2022-09-11T01:33:40.475Z,91.71
2022-09-11T01:34:51.835Z,91.29
2022-09-11T01:35:48.376Z,90.98
2022-09-11T01:36:53.777Z,90.94
2022-09-11T01:38:01.722Z,90.52
2022-09-11T01:39:00.963Z,90.91
2022-09-11T01:40:05.509Z,91.70
2022-09-11T01:41:09.060Z,92.34
2022-09-11T01:42:10.233Z,92.46
2022-09-11T01:43:13.804Z,92.46
2022-09-11T01:44:18.755Z,92.59
2022-09-11T01:45:17.174Z,92.58
2022-09-11T01:46:23.179Z,92.19
2022-09-11T01:47:21.170Z,92.54
2022-09-11T01:48:25.816Z,92.19
2022-09-11T01:49:35.360Z,92.07
2022-09-11T01:50:33.666Z,92.17
2022-09-11T01:51:35.206Z,92.19
2022-09-11T01:52:39.780Z,92.30
2022-09-11T01:53:43.500Z,92.30
2022-09-11T01:54:56.195Z,92.14
2022-09-11T01:55:58.734Z,91.92
2022-09-11T01:57:00.598Z,92.24
2022-09-11T01:58:15.299Z,92.61
2022-09-11T01:59:17.069Z,92.69
2022-09-11T02:00:14.551Z,92.67
2022-09-11T02:01:23.310Z,92.38
2022-09-11T02:02:27.301Z,92.25
2022-09-11T02:03:31.882Z,92.65
2022-09-11T02:04:37.462Z,92.15
2022-09-11T02:05:43.941Z,92.72
2022-09-11T02:06:49.246Z,93.17
2022-09-11T02:08:24.510Z,93.11
2022-09-11T02:09:26.116Z,92.73
2022-09-11T02:10:30.312Z,92.60
2022-09-11T02:11:29.457Z,92.94
2022-09-11T02:12:32.191Z,92.65
2022-09-11T02:13:40.126Z,92.35
2022-09-11T02:14:42.137Z,92.15
2022-09-11T02:15:43.905Z,91.65
2022-09-11T02:16:45.353Z,91.87
2022-09-11T02:17:58.365Z,92.77
2022-09-11T02:19:09.198Z,93.05
2022-09-11T02:20:06.656Z,93.18
2022-09-11T02:21:03.322Z,93.02
2022-09-11T02:22:00.151Z,92.63
2022-09-11T02:22:57.341Z,92.43
2022-09-11T02:23:55.576Z,92.03
2022-09-11T02:24:53.109Z,91.73
2022-09-11T02:25:50.570Z,91.72
2022-09-11T02:26:55.295Z,92.79
2022-09-11T02:27:52.096Z,93.62
2022-09-11T02:28:48.698Z,94.15
2022-09-11T02:29:45.811Z,94.55
2022-09-11T02:30:44.010Z,95.06
2022-09-11T02:31:42.395Z,95.07
2022-09-11T02:32:43.504Z,95.44
2022-09-11T02:33:40.990Z,95.75
2022-09-11T02:34:40.519Z,95.92
2022-09-11T02:35:47.210Z,96.16
2022-09-11T02:37:11.596Z,96.56
2022-09-11T02:38:20.988Z,96.57
2022-09-11T02:39:41.531Z,96.46
2022-09-11T02:40:50.353Z,96.46
2022-09-11T02:41:51.889Z,96.67
2022-09-11T02:43:13.477Z,96.68
2022-09-11T02:44:19.796Z,96.74
2022-09-11T02:45:25.178Z,97.01
2022-09-11T02:46:39.893Z,97.25
2022-09-11T02:48:11.758Z,97.38
2022-09-11T02:49:31.209Z,97.38
2022-09-11T02:51:00.167Z,97.26
2022-09-11T02:52:12.547Z,97.35
2022-09-11T02:53:27.159Z,97.57
2022-09-11T02:54:32.500Z,97.50
2022-09-11T02:56:20.669Z,97.54
2022-09-11T02:57:29.293Z,97.58
2022-09-11T02:58:30.735Z,97.61
2022-09-11T02:59:42.243Z,97.73
2022-09-11T03:00:40.101Z,97.92
2022-09-11T03:01:55.330Z,97.82
2022-09-11T03:02:53.666Z,97.92
2022-09-11T03:03:51.219Z,97.98
2022-09-11T03:04:48.524Z,98.13
2022-09-11T03:05:46.606Z,98.06
2022-09-11T03:06:43.308Z,98.00
2022-09-11T03:07:39.885Z,97.89
2022-09-11T03:08:36.492Z,97.53
2022-09-11T03:09:34.911Z,97.59
2022-09-11T03:10:31.578Z,97.12
2022-09-11T03:11:28.179Z,96.71
2022-09-11T03:12:24.957Z,96.12
2022-09-11T03:13:21.614Z,95.88
2022-09-11T03:14:18.208Z,95.83
2022-09-11T03:15:16.802Z,95.43
2022-09-11T03:16:13.607Z,95.14
2022-09-11T03:17:10.461Z,94.67
2022-09-11T03:18:07.020Z,94.87
2022-09-11T03:19:04.981Z,94.81
2022-09-11T03:20:01.996Z,94.58
2022-09-11T03:20:58.665Z,94.61
2022-09-11T03:21:55.236Z,94.77
2022-09-11T03:22:51.796Z,94.51
2022-09-11T03:23:48.438Z,94.67
2022-09-11T03:24:45.165Z,94.53
2022-09-11T03:25:41.753Z,94.28
2022-09-11T03:26:38.365Z,95.04
2022-09-11T03:27:35.001Z,95.06
2022-09-11T03:28:32.149Z,95.32
2022-09-11T03:29:28.747Z,95.46
2022-09-11T03:30:25.325Z,94.74
2022-09-11T03:31:22.033Z,94.59
2022-09-11T03:32:18.670Z,94.69
2022-09-11T03:33:17.192Z,94.92
2022-09-11T03:34:14.182Z,95.33
2022-09-11T03:35:11.408Z,95.25
2022-09-11T03:36:09.775Z,95.42
2022-09-11T03:37:06.399Z,95.30
2022-09-11T03:38:03.244Z,95.18
2022-09-11T03:39:00.805Z,95.13
2022-09-11T03:39:57.474Z,95.27
2022-09-11T03:40:55.208Z,95.03
2022-09-11T03:41:52.050Z,95.21
2022-09-11T03:42:48.724Z,95.22
2022-09-11T03:43:45.393Z,95.12
2022-09-11T03:44:42.092Z,94.88
2022-09-11T03:45:39.243Z,94.62
2022-09-11T03:46:35.978Z,94.16
2022-09-11T03:47:32.747Z,94.62
2022-09-11T03:48:29.746Z,94.74
2022-09-11T03:49:26.457Z,94.72
2022-09-11T03:50:23.199Z,94.23
2022-09-11T03:51:21.204Z,93.82
2022-09-11T03:52:17.886Z,93.12
2022-09-11T03:53:14.786Z,93.11
2022-09-11T03:54:11.347Z,93.12
2022-09-11T03:55:08.293Z,93.02
2022-09-11T03:56:06.498Z,93.23
2022-09-11T03:57:03.184Z,93.20
2022-09-11T03:58:00.132Z,92.94
2022-09-11T03:58:57.654Z,93.19
2022-09-11T03:59:55.983Z,93.15
2022-09-11T04:00:52.693Z,92.73
2022-09-11T04:01:50.812Z,92.67
2022-09-11T04:02:47.968Z,92.89
2022-09-11T04:03:44.577Z,93.39
2022-09-11T04:04:41.388Z,93.69
2022-09-11T04:05:38.731Z,94.08
2022-09-11T04:06:35.700Z,94.09
2022-09-11T04:07:32.386Z,94.00
2022-09-11T04:08:33.752Z,93.91
2022-09-11T04:09:31.831Z,93.86
2022-09-11T04:10:28.473Z,93.63
2022-09-11T04:11:25.036Z,93.31
2022-09-11T04:12:21.621Z,92.92
2022-09-11T04:13:18.200Z,92.83
2022-09-11T04:14:14.834Z,92.82
2022-09-11T04:15:11.551Z,92.80
2022-09-11T04:16:12.784Z,93.03
2022-09-11T04:17:09.821Z,92.74
2022-09-11T04:18:07.336Z,92.92
2022-09-11T04:19:04.154Z,93.35
2022-09-11T04:20:00.945Z,94.03
2022-09-11T04:20:57.590Z,94.39
2022-09-11T04:21:54.361Z,94.65
2022-09-11T04:22:51.171Z,94.63
2022-09-11T04:23:52.507Z,94.87
2022-09-11T04:24:49.060Z,94.98
2022-09-11T04:25:45.616Z,95.45
2022-09-11T04:26:42.585Z,95.53
2022-09-11T04:27:39.654Z,96.05
2022-09-11T04:28:36.741Z,96.19
2022-09-11T04:29:33.809Z,96.53
2022-09-11T04:30:30.458Z,96.89
2022-09-11T04:31:27.852Z,97.25
2022-09-11T04:32:24.538Z,97.80
2022-09-11T04:33:21.894Z,97.97
2022-09-11T04:34:19.772Z,98.46
2022-09-11T04:35:16.600Z,98.79
2022-09-11T04:36:19.273Z,99.12
2022-09-11T04:37:16.722Z,99.48
2022-09-11T04:38:13.420Z,99.62
2022-09-11T04:39:11.103Z,100.00
2022-09-11T04:40:09.918Z,100.00
2022-09-11T04:41:07.509Z,100.00
2022-09-11T04:42:04.598Z,100.00
2022-09-11T04:43:02.298Z,100.00
2022-09-11T04:44:05.403Z,100.00
2022-09-11T04:45:02.468Z,100.00
2022-09-11T04:46:04.602Z,99.97
2022-09-11T04:47:01.236Z,99.47
2022-09-11T04:47:57.812Z,99.21
2022-09-11T04:48:56.600Z,98.84
2022-09-11T04:49:53.257Z,98.38
2022-09-11T04:50:50.594Z,97.90
2022-09-11T04:51:47.249Z,97.18
2022-09-11T04:52:45.387Z,96.30
2022-09-11T04:53:42.150Z,95.60
2022-09-11T04:54:38.890Z,94.85
2022-09-11T04:55:35.428Z,94.38
2022-09-11T04:56:37.908Z,93.93
2022-09-11T04:57:34.362Z,93.58
2022-09-11T04:58:31.649Z,93.82
2022-09-11T04:59:28.485Z,93.91
2022-09-11T05:00:25.166Z,94.09
2022-09-11T05:01:23.569Z,94.17
2022-09-11T05:02:20.219Z,94.10
2022-09-11T05:03:18.034Z,94.24
2022-09-11T05:04:15.916Z,94.67
2022-09-11T05:05:13.055Z,94.74
2022-09-11T05:06:11.300Z,94.59
2022-09-11T05:07:08.116Z,94.32
2022-09-11T05:08:04.713Z,93.82
2022-09-11T05:09:04.578Z,94.03
2022-09-11T05:10:01.770Z,94.35
2022-09-11T05:11:00.078Z,94.56
2022-09-11T05:11:57.192Z,94.71
2022-09-11T05:12:53.776Z,94.73
2022-09-11T05:13:50.395Z,94.69
2022-09-11T05:14:47.045Z,94.35
2022-09-11T05:15:43.833Z,94.47
2022-09-11T05:16:40.461Z,93.85
2022-09-11T05:17:37.045Z,93.70
2022-09-11T05:18:33.615Z,93.07
2022-09-11T05:19:30.152Z,92.54
2022-09-11T05:20:26.719Z,92.44
2022-09-11T05:21:25.811Z,92.10
2022-09-11T05:22:23.200Z,91.95
2022-09-11T05:23:20.251Z,91.82
2022-09-11T05:24:17.097Z,91.73
2022-09-11T05:25:14.057Z,91.10
2022-09-11T05:26:21.499Z,90.94
2022-09-11T05:27:18.060Z,89.96
2022-09-11T05:28:14.756Z,90.00
2022-09-11T05:29:15.747Z,90.41
2022-09-11T05:30:12.695Z,90.07
2022-09-11T05:31:17.569Z,89.56
2022-09-11T05:32:14.333Z,89.58
2022-09-11T05:33:12.872Z,89.97
2022-09-11T05:34:09.639Z,89.33
2022-09-11T05:35:07.240Z,89.34
2022-09-11T05:36:06.303Z,88.60
2022-09-11T05:37:03.146Z,88.43
2022-09-11T05:37:59.795Z,88.09
2022-09-11T05:38:57.150Z,88.08
2022-09-11T05:39:53.899Z,86.70
2022-09-11T05:40:52.218Z,86.22
2022-09-11T05:41:51.775Z,84.73
2022-09-11T05:42:48.330Z,84.80
2022-09-11T05:43:45.273Z,85.21
2022-09-11T05:44:41.887Z,85.93
2022-09-11T05:45:38.542Z,85.96
2022-09-11T05:46:35.244Z,85.90
2022-09-11T05:47:31.914Z,84.99
2022-09-11T05:48:29.930Z,84.92
2022-09-11T05:49:26.614Z,85.07
2022-09-11T05:50:23.271Z,85.19
2022-09-11T05:51:21.525Z,84.25
2022-09-11T05:52:18.310Z,84.61
2022-09-11T05:53:14.861Z,85.65
2022-09-11T05:54:11.753Z,85.51
2022-09-11T05:55:08.967Z,85.37
2022-09-11T05:56:17.675Z,85.43
2022-09-11T05:57:14.322Z,85.69
2022-09-11T05:58:11.380Z,85.43
2022-09-11T05:59:14.428Z,85.28
2022-09-11T06:00:13.464Z,85.06
2022-09-11T06:01:12.871Z,85.25
2022-09-11T06:02:11.682Z,84.45
2022-09-11T06:03:10.584Z,84.42
2022-09-11T06:04:11.138Z,83.75
2022-09-11T06:05:09.144Z,83.03
2022-09-11T06:06:11.323Z,83.24
2022-09-11T06:07:07.908Z,84.73
2022-09-11T06:08:04.841Z,85.28
2022-09-11T06:09:01.644Z,84.17
2022-09-11T06:10:02.930Z,84.08
2022-09-11T06:11:01.265Z,85.81
2022-09-11T06:11:57.912Z,85.33
2022-09-11T06:12:54.503Z,84.86
2022-09-11T06:13:51.223Z,84.65
2022-09-11T06:14:47.787Z,84.00
2022-09-11T06:15:47.060Z,83.82
2022-09-11T06:16:43.963Z,84.25
2022-09-11T06:17:40.943Z,84.66
2022-09-11T06:18:38.029Z,83.43
2022-09-11T06:19:34.926Z,83.17
2022-09-11T06:20:31.551Z,81.78
2022-09-11T06:21:29.297Z,79.75
2022-09-11T06:22:27.365Z,79.56
2022-09-11T06:23:23.988Z,80.76
2022-09-11T06:24:20.532Z,80.26
2022-09-11T06:25:17.109Z,79.13
2022-09-11T06:26:15.671Z,79.51
2022-09-11T06:27:12.282Z,78.54
2022-09-11T06:28:08.834Z,78.35
2022-09-11T06:29:05.461Z,78.85
2022-09-11T06:30:02.157Z,80.37
2022-09-11T06:30:58.902Z,81.86
2022-09-11T06:31:55.544Z,81.36
2022-09-11T06:32:52.119Z,81.15
2022-09-11T06:33:49.282Z,81.05
2022-09-11T06:34:46.777Z,81.42
2022-09-11T06:35:43.392Z,81.42
2022-09-11T06:36:40.154Z,80.86
2022-09-11T06:37:36.777Z,79.59
2022-09-11T06:38:33.821Z,77.80
2022-09-11T06:39:30.438Z,79.22
2022-09-11T06:40:27.059Z,79.34
2022-09-11T06:41:25.273Z,79.70
2022-09-11T06:42:21.876Z,78.74
2022-09-11T06:43:18.726Z,78.65
2022-09-11T06:44:15.413Z,78.29
2022-09-11T06:45:11.993Z,78.07
2022-09-11T06:46:13.431Z,77.14
2022-09-11T06:47:10.107Z,76.85
2022-09-11T06:48:06.791Z,76.47
2022-09-11T06:49:03.560Z,76.02
2022-09-11T06:50:00.183Z,76.04
2022-09-11T06:50:57.353Z,76.24
2022-09-11T06:51:54.477Z,77.64
2022-09-11T06:52:51.968Z,78.49
2022-09-11T06:53:49.133Z,77.55
2022-09-11T06:54:45.715Z,77.10
2022-09-11T06:55:42.263Z,76.52
2022-09-11T06:56:38.979Z,76.38
2022-09-11T06:57:39.910Z,76.16
2022-09-11T06:58:40.022Z,76.18
2022-09-11T06:59:36.596Z,75.63
2022-09-11T07:00:34.343Z,74.58
2022-09-11T07:01:31.058Z,75.53
2022-09-11T07:02:27.656Z,74.95
2022-09-11T07:03:24.201Z,75.12
2022-09-11T07:04:21.133Z,74.38
2022-09-11T07:05:17.792Z,75.30
2022-09-11T07:06:20.418Z,75.15
2022-09-11T07:07:17.087Z,72.76
2022-09-11T07:08:13.911Z,72.52
2022-09-11T07:09:12.081Z,72.81
2022-09-11T07:10:10.467Z,72.39
2022-09-11T07:11:08.429Z,71.80
2022-09-11T07:12:05.373Z,71.19
2022-09-11T07:13:01.954Z,71.46
2022-09-11T07:13:59.758Z,72.00
2022-09-11T07:14:56.369Z,72.74
2022-09-11T07:16:04.345Z,72.00
2022-09-11T07:17:01.483Z,70.84
2022-09-11T07:17:58.424Z,71.47
2022-09-11T07:18:55.089Z,72.28
2022-09-11T07:19:51.973Z,71.57
2022-09-11T07:20:48.625Z,70.44
2022-09-11T07:21:45.201Z,69.27
2022-09-11T07:22:41.828Z,70.30
2022-09-11T07:23:39.478Z,69.96
2022-09-11T07:24:36.144Z,68.04
2022-09-11T07:25:32.803Z,69.88
2022-09-11T07:26:30.553Z,69.22
2022-09-11T07:27:28.207Z,68.74
2022-09-11T07:28:25.517Z,68.82
2022-09-11T07:29:22.541Z,69.18
2022-09-11T07:30:19.604Z,69.05
2022-09-11T07:31:20.926Z,69.02
2022-09-11T07:32:17.873Z,67.99
2022-09-11T07:33:14.562Z,67.41
2022-09-11T07:34:11.212Z,67.54
2022-09-11T07:35:10.309Z,67.16
2022-09-11T07:36:12.105Z,66.77
2022-09-11T07:37:08.796Z,67.11
2022-09-11T07:38:05.368Z,67.22
2022-09-11T07:39:03.479Z,67.09
2022-09-11T07:40:00.208Z,67.90
2022-09-11T07:40:58.134Z,68.21
2022-09-11T07:41:54.813Z,66.98
2022-09-11T07:42:51.378Z,65.60
2022-09-11T07:43:53.198Z,67.12
2022-09-11T07:44:50.802Z,65.81
2022-09-11T07:45:48.211Z,66.06
2022-09-11T07:46:44.910Z,65.98
2022-09-11T07:47:41.776Z,65.83
2022-09-11T07:48:39.679Z,65.59
2022-09-11T07:49:36.345Z,65.23
2022-09-11T07:50:33.343Z,65.46
2022-09-11T07:51:29.939Z,63.99
2022-09-11T07:52:26.986Z,65.15
2022-09-11T07:53:24.733Z,64.12
2022-09-11T07:54:22.202Z,63.10
2022-09-11T07:55:19.053Z,63.76
2022-09-11T07:56:26.129Z,62.75
2022-09-11T07:57:24.236Z,64.05
2022-09-11T07:58:20.837Z,62.78
2022-09-11T07:59:18.349Z,62.27
2022-09-11T08:00:16.495Z,63.06
2022-09-11T08:01:15.871Z,61.54
2022-09-11T08:02:12.816Z,60.67
2022-09-11T08:03:09.428Z,62.44
2022-09-11T08:04:07.747Z,62.96
2022-09-11T08:05:04.657Z,62.02
2022-09-11T08:06:04.096Z,63.13
2022-09-11T08:07:00.730Z,63.05
2022-09-11T08:07:57.279Z,63.02
2022-09-11T08:08:56.103Z,61.77
2022-09-11T08:10:04.634Z,60.99
2022-09-11T08:11:12.567Z,60.48
2022-09-11T08:12:10.090Z,61.53
2022-09-11T08:13:09.428Z,59.86
2022-09-11T08:14:07.483Z,59.94
2022-09-11T08:15:04.474Z,59.24
2022-09-11T08:16:01.667Z,60.54
2022-09-11T08:16:58.806Z,61.65
2022-09-11T08:17:55.390Z,60.36
2022-09-11T08:18:52.609Z,60.67
2022-09-11T08:19:49.192Z,59.06
2022-09-11T08:20:45.871Z,57.61
2022-09-11T08:21:42.779Z,58.80
2022-09-11T08:22:39.833Z,57.71
2022-09-11T08:23:38.450Z,58.91
2022-09-11T08:24:35.733Z,58.96
2022-09-11T08:25:34.968Z,57.79
2022-09-11T08:26:31.657Z,58.71
2022-09-11T08:27:28.577Z,57.72
2022-09-11T08:28:25.271Z,57.76
2022-09-11T08:29:22.013Z,58.19
2022-09-11T08:30:18.708Z,58.59
2022-09-11T08:31:15.314Z,58.07
2022-09-11T08:32:13.679Z,57.35
2022-09-11T08:33:12.518Z,56.97
2022-09-11T08:34:09.944Z,56.75
2022-09-11T08:35:06.944Z,56.32
2022-09-11T08:36:06.241Z,57.15
2022-09-11T08:37:03.097Z,56.56
2022-09-11T08:38:00.374Z,57.37
2022-09-11T08:39:00.393Z,56.60
2022-09-11T08:39:57.093Z,57.94
2022-09-11T08:40:54.901Z,56.43
2022-09-11T08:42:14.703Z,55.91
2022-09-11T08:43:21.996Z,54.94
2022-09-11T08:44:41.617Z,56.71
2022-09-11T08:45:38.376Z,56.71
2022-09-11T08:46:43.407Z,56.35
2022-09-11T08:47:42.003Z,56.32
2022-09-11T08:48:53.818Z,53.20
2022-09-11T08:50:01.577Z,54.82
2022-09-11T08:50:58.595Z,53.09
2022-09-11T08:52:01.721Z,52.99
2022-09-11T08:53:02.296Z,53.60
2022-09-11T08:54:02.005Z,53.91
2022-09-11T08:54:59.586Z,54.61
2022-09-11T08:56:01.784Z,53.58
2022-09-11T08:57:05.742Z,54.63
2022-09-11T08:58:26.847Z,53.06
2022-09-11T08:59:50.503Z,53.94
2022-09-11T09:00:55.077Z,55.51
2022-09-11T09:02:10.695Z,58.04
2022-09-11T09:03:16.231Z,55.95
2022-09-11T09:04:28.180Z,55.78
2022-09-11T09:05:40.107Z,57.61
2022-09-11T09:06:51.228Z,57.97
2022-09-11T09:08:01.727Z,56.79
2022-09-11T09:09:09.999Z,59.30
2022-09-11T09:10:49.264Z,58.29
2022-09-11T09:11:55.921Z,56.83
2022-09-11T09:13:15.288Z,56.09
2022-09-11T09:14:21.020Z,54.84
2022-09-11T09:15:29.507Z,55.40
2022-09-11T09:16:42.215Z,52.72
2022-09-11T09:17:49.209Z,54.82
2022-09-11T09:19:03.389Z,51.30
2022-09-11T09:20:11.143Z,50.69
2022-09-11T09:21:24.550Z,53.43
2022-09-11T09:22:35.318Z,54.16
2022-09-11T09:23:39.581Z,53.00
2022-09-11T09:24:50.299Z,53.01
2022-09-11T09:25:49.048Z,51.93
2022-09-11T09:26:53.047Z,50.05
2022-09-11T09:28:03.937Z,49.13
2022-09-11T09:29:05.076Z,49.38
2022-09-11T09:30:06.141Z,50.59
2022-09-11T09:31:08.570Z,50.78
2022-09-11T09:32:13.895Z,51.51
2022-09-11T09:33:13.489Z,51.60
2022-09-11T09:34:22.359Z,51.13
2022-09-11T09:35:26.913Z,50.32
2022-09-11T09:36:31.483Z,48.70
2022-09-11T09:37:28.684Z,49.53
2022-09-11T09:38:31.452Z,48.27
2022-09-11T09:39:29.100Z,49.32
2022-09-11T09:40:27.279Z,49.26
2022-09-11T09:42:03.864Z,51.80
2022-09-11T09:43:49.937Z,50.32
2022-09-11T09:45:14.505Z,51.26
2022-09-11T09:46:52.145Z,51.09
2022-09-11T09:47:49.340Z,50.61
2022-09-11T09:48:46.488Z,50.36
2022-09-11T09:49:45.007Z,49.48
2022-09-11T09:50:44.780Z,49.60
2022-09-11T09:51:41.671Z,48.14
2022-09-11T09:52:38.948Z,49.68
2022-09-11T09:53:41.597Z,49.82
2022-09-11T09:54:39.626Z,48.40
2022-09-11T09:55:39.238Z,48.17
2022-09-11T09:56:37.731Z,49.95
2022-09-11T09:57:37.276Z,49.23
2022-09-11T09:58:40.853Z,47.29
2022-09-11T09:59:46.805Z,47.46
2022-09-11T10:00:44.002Z,49.20
2022-09-11T10:01:51.099Z,48.12
2022-09-11T10:02:55.482Z,48.26
2022-09-11T10:04:11.104Z,49.36
2022-09-11T10:05:16.969Z,48.14
2022-09-11T10:06:14.073Z,48.07
2022-09-11T10:07:14.210Z,48.98
2022-09-11T10:08:34.035Z,48.39
2022-09-11T10:09:31.295Z,51.19
2022-09-11T10:10:29.884Z,49.83
2022-09-11T10:11:29.946Z,48.35
2022-09-11T10:12:28.405Z,49.26
2022-09-11T10:13:28.852Z,46.49
2022-09-11T10:14:49.694Z,45.84
2022-09-11T10:15:44.074Z,44.88
2022-09-11T10:16:40.737Z,46.46
2022-09-11T10:17:37.900Z,44.82
2022-09-11T10:18:37.639Z,45.09
2022-09-11T10:19:43.391Z,46.22
2022-09-11T10:20:41.288Z,47.80
2022-09-11T10:21:39.629Z,45.56
2022-09-11T10:22:36.722Z,45.84
2022-09-11T10:23:51.118Z,45.34
2022-09-11T10:24:59.421Z,45.65
2022-09-11T10:25:56.085Z,44.16
2022-09-11T10:26:56.045Z,42.70
2022-09-11T10:28:11.187Z,44.37
2022-09-11T10:29:14.234Z,43.19
2022-09-11T10:30:43.946Z,43.58
2022-09-11T10:31:48.487Z,43.53
2022-09-11T10:32:45.102Z,44.37
2022-09-11T10:33:48.795Z,45.00
2022-09-11T10:34:45.421Z,43.26
2022-09-11T10:35:50.633Z,43.89
2022-09-11T10:36:56.295Z,45.77
2022-09-11T10:38:19.043Z,45.34
2022-09-11T10:39:20.007Z,45.61
2022-09-11T10:40:21.622Z,44.88
2022-09-11T10:41:22.421Z,44.49
2022-09-11T10:42:25.854Z,44.77
2022-09-11T10:43:26.899Z,44.82
2022-09-11T10:44:24.272Z,45.30
2022-09-11T10:45:22.810Z,43.82
2022-09-11T10:46:19.356Z,43.67
2022-09-11T10:47:22.341Z,42.60
2022-09-11T10:48:22.723Z,43.96
2022-09-11T10:49:22.191Z,43.83
2022-09-11T10:50:18.866Z,45.23
2022-09-11T10:51:15.530Z,44.51
2022-09-11T10:52:12.102Z,44.27
2022-09-11T10:53:23.035Z,45.44
2022-09-11T10:54:44.725Z,44.79
2022-09-11T10:55:53.009Z,45.20
2022-09-11T10:57:13.581Z,43.55
2022-09-11T10:58:32.844Z,44.95
2022-09-11T10:59:35.498Z,44.18
2022-09-11T11:00:32.591Z,44.60
2022-09-11T11:01:29.169Z,45.45
2022-09-11T11:02:50.924Z,44.79
2022-09-11T11:03:47.568Z,42.40
2022-09-11T11:04:44.589Z,43.84
2022-09-11T11:06:04.115Z,42.86
2022-09-11T11:07:06.552Z,43.14
2022-09-11T11:08:05.848Z,41.27
2022-09-11T11:09:47.645Z,41.60
2022-09-11T11:10:51.333Z,41.02
2022-09-11T11:12:17.566Z,40.39
2022-09-11T11:13:35.725Z,41.29
2022-09-11T11:14:54.711Z,41.18
2022-09-11T11:16:05.417Z,40.35
2022-09-11T11:17:32.944Z,41.63
2022-09-11T11:18:42.812Z,41.27
2022-09-11T11:20:11.723Z,40.82
2022-09-11T11:21:27.028Z,40.78
2022-09-11T11:22:51.561Z,41.18
2022-09-11T11:23:57.164Z,40.02
2022-09-11T11:25:21.677Z,40.16
2022-09-11T11:26:31.657Z,39.62
2022-09-11T11:27:57.330Z,39.08
2022-09-11T11:29:11.979Z,40.23
2022-09-11T11:30:15.759Z,41.77
2022-09-11T11:31:21.210Z,42.43
2022-09-11T11:32:36.722Z,41.80
2022-09-11T11:33:52.713Z,40.49
2022-09-11T11:35:07.575Z,41.47
2022-09-11T11:36:12.343Z,40.61
2022-09-11T11:37:14.934Z,42.18
2022-09-11T11:38:22.539Z,41.32
2022-09-11T11:39:25.218Z,42.50
2022-09-11T11:40:36.949Z,41.42
2022-09-11T11:41:44.623Z,41.12
2022-09-11T11:42:58.754Z,41.39
2022-09-11T11:43:59.084Z,41.48
2022-09-11T11:45:09.530Z,41.31
2022-09-11T11:46:13.182Z,39.99
2022-09-11T11:47:11.083Z,39.67
2022-09-11T11:48:17.277Z,39.89
2022-09-11T11:49:23.518Z,40.16
2022-09-11T11:50:34.233Z,40.66
2022-09-11T11:51:39.499Z,40.92
2022-09-11T11:52:52.356Z,42.01
2022-09-11T11:54:01.869Z,40.57
2022-09-11T11:55:16.959Z,41.30
2022-09-11T11:56:14.786Z,41.40
2022-09-11T11:57:20.760Z,40.72
2022-09-11T11:58:32.196Z,40.37
2022-09-11T11:59:47.384Z,39.97
2022-09-11T12:00:52.209Z,41.10
2022-09-11T12:02:03.534Z,39.04
2022-09-11T12:03:15.708Z,37.57
2022-09-11T12:04:36.988Z,38.14
2022-09-11T12:05:34.887Z,36.79
2022-09-11T12:06:31.508Z,37.00
2022-09-11T12:07:34.205Z,37.60
2022-09-11T12:08:30.896Z,36.32
2022-09-11T12:09:32.921Z,38.36
2022-09-11T12:10:35.499Z,36.66
2022-09-11T12:11:33.870Z,37.86
2022-09-11T12:12:34.852Z,37.74
2022-09-11T12:13:35.583Z,37.84
2022-09-11T12:14:34.276Z,38.22
2022-09-11T12:15:33.723Z,37.67
2022-09-11T12:16:35.161Z,35.36
2022-09-11T12:17:34.552Z,36.69
2022-09-11T12:18:31.744Z,35.55
2022-09-11T12:19:28.400Z,35.90
2022-09-11T12:20:35.263Z,35.40
2022-09-11T12:21:31.916Z,35.91
2022-09-11T12:22:34.674Z,34.94
2022-09-11T12:23:31.273Z,35.95
2022-09-11T12:24:52.444Z,35.57
2022-09-11T12:25:53.641Z,35.66
2022-09-11T12:27:33.821Z,35.16
2022-09-11T12:28:30.579Z,34.79
2022-09-11T12:29:29.949Z,34.32
2022-09-11T12:30:28.686Z,34.64
2022-09-11T12:31:25.407Z,34.16
2022-09-11T12:32:41.919Z,35.70
2022-09-11T12:33:50.876Z,35.98
2022-09-11T12:34:47.835Z,35.17
2022-09-11T12:35:49.462Z,36.03
2022-09-11T12:36:56.932Z,36.41
2022-09-11T12:37:58.193Z,37.10
2022-09-11T12:39:06.534Z,35.26
2022-09-11T12:40:32.394Z,35.22
2022-09-11T12:41:30.819Z,37.04
2022-09-11T12:42:47.766Z,35.07
2022-09-11T12:43:46.582Z,36.11
2022-09-11T12:44:45.947Z,35.21
2022-09-11T12:45:43.845Z,35.57
2022-09-11T12:46:40.558Z,36.88
2022-09-11T12:47:39.902Z,37.10
2022-09-11T12:48:44.121Z,36.61
2022-09-11T12:49:42.724Z,36.17
2022-09-11T12:50:40.748Z,35.35
2022-09-11T12:51:42.439Z,36.32
2022-09-11T12:52:47.818Z,35.16
2022-09-11T12:53:47.007Z,35.26
2022-09-11T12:54:44.620Z,36.10
2022-09-11T12:55:53.125Z,34.89
2022-09-11T12:57:06.784Z,34.88
2022-09-11T12:58:20.807Z,35.70
2022-09-11T12:59:46.225Z,34.74
2022-09-11T13:00:46.235Z,36.30
2022-09-11T13:01:46.921Z,34.85
2022-09-11T13:02:46.811Z,34.94
2022-09-11T13:03:53.417Z,34.94
2022-09-11T13:04:52.232Z,36.20
2022-09-11T13:06:00.179Z,35.32
2022-09-11T13:07:04.158Z,35.80
2022-09-11T13:08:07.075Z,36.45
2022-09-11T13:09:05.818Z,35.16
2022-09-11T13:10:09.868Z,36.64
2022-09-11T13:11:34.455Z,34.44
2022-09-11T13:12:49.999Z,35.58
2022-09-11T13:13:47.011Z,35.18
2022-09-11T13:14:56.633Z,34.78
2022-09-11T13:15:57.345Z,35.35
2022-09-11T13:16:57.941Z,35.19
2022-09-11T13:17:54.728Z,35.56